Time;durP1;ratioP1;P1;durP2;ratioP2;P2;SDS_P1;SDS_P2;PMS_P1;PMS_P2;Temp;Humidity;BMP_temperature;BMP_pressure;BME280_temperature;BME280_humidity;BME280_pressure;Samples;Min_cycle;Max_cycle;Signal;HPM_P1;HPM_P2
2022/12/29 00:02:15;;;;;;;2.75;1.20;;;8.30;99.90;;;;;;4994147;28;20491;-73
2022/12/29 00:04:41;;;;;;;2.47;1.45;;;8.30;99.90;;;;;;4995245;28;20044;-72
2022/12/29 00:07:07;;;;;;;2.55;1.33;;;8.30;99.90;;;;;;4998481;28;20804;-72
2022/12/29 00:09:33;;;;;;;2.60;1.10;;;8.30;99.90;;;;;;4997030;28;20088;-72
2022/12/29 00:12:00;;;;;;;2.83;1.15;;;8.30;99.90;;;;;;5007574;28;20089;-73
2022/12/29 00:17:10;;;;;;;1.77;1.00;;;8.30;99.90;;;;;;4988880;28;20089;-73
2022/12/29 00:36:32;;;;;;;;;;;8.40;99.90;;;;;;5001126;28;20072;-73
2022/12/29 00:44:48;;;;;;;2.25;1.70;;;8.50;99.90;;;;;;4997541;28;20037;-74
2022/12/29 00:47:13;;;;;;;2.50;1.05;;;8.50;99.90;;;;;;5001157;28;20034;-73
2022/12/29 00:49:39;;;;;;;3.25;0.90;;;8.60;99.90;;;;;;5001738;28;20653;-73
2022/12/29 00:52:12;;;;;;;2.35;1.00;;;8.60;99.90;;;;;;4995326;28;20034;-73
2022/12/29 00:54:39;;;;;;;3.78;1.00;;;8.60;99.90;;;;;;4999367;28;20034;-73
2022/12/29 00:57:07;;;;;;;4.35;1.67;;;8.60;99.90;;;;;;5001603;28;20506;-73
2022/12/29 00:59:35;;;;;;;5.35;1.30;;;8.60;99.90;;;;;;4996701;28;20043;-73
2022/12/29 01:02:00;;;;;;;5.10;1.42;;;8.60;99.90;;;;;;4996643;28;20031;-73
2022/12/29 01:04:26;;;;;;;3.97;1.20;;;8.60;99.90;;;;;;4998388;28;20026;-73
2022/12/29 01:06:52;;;;;;;2.38;1.45;;;8.60;99.90;;;;;;5000020;28;20373;-73
2022/12/29 01:12:04;;;;;;;3.00;1.33;;;8.60;99.90;;;;;;4998486;28;20518;-74
2022/12/29 01:14:30;;;;;;;2.03;1.02;;;8.60;99.90;;;;;;4997722;28;20377;-74
2022/12/29 01:16:56;;;;;;;4.07;1.40;;;8.60;99.90;;;;;;4993962;28;20121;-74
2022/12/29 01:19:22;;;;;;;2.38;0.95;;;8.60;99.90;;;;;;5003800;28;20121;-73
2022/12/29 01:21:48;;;;;;;2.85;1.08;;;8.60;99.90;;;;;;4997554;28;20026;-74
2022/12/29 01:24:16;;;;;;;2.13;0.90;;;8.60;99.90;;;;;;4999863;28;20030;-74
2022/12/29 01:26:42;;;;;;;1.83;1.02;;;8.70;99.90;;;;;;4997574;28;20046;-74
2022/12/29 01:29:08;;;;;;;4.45;1.23;;;8.70;99.90;;;;;;5000823;28;20491;-74
2022/12/29 01:31:34;;;;;;;3.53;1.08;;;8.70;99.90;;;;;;4996037;28;20073;-73
2022/12/29 01:34:00;;;;;;;2.33;1.20;;;8.70;99.90;;;;;;5000688;28;20455;-73
2022/12/29 01:36:26;;;;;;;1.67;0.98;;;8.70;99.90;;;;;;4983434;28;20125;-74
2022/12/29 01:38:51;;;;;;;7.40;1.35;;;8.70;99.90;;;;;;4997043;28;20864;-73
2022/12/29 01:41:17;;;;;;;3.65;1.10;;;8.70;99.90;;;;;;4999493;28;20022;-74
2022/12/29 01:43:45;;;;;;;1.98;1.00;;;8.80;99.90;;;;;;4999119;28;20486;-73
2022/12/29 01:46:40;;;;;;;3.03;1.13;;;8.80;99.90;;;;;;4995555;28;20029;-74
2022/12/29 01:49:26;;;;;;;2.97;1.33;;;8.80;99.90;;;;;;4993417;28;20044;-73
2022/12/29 01:51:57;;;;;;;3.42;0.90;;;8.80;99.90;;;;;;4998169;28;20023;-74
2022/12/29 01:54:30;;;;;;;2.03;1.08;;;8.80;99.90;;;;;;4993845;28;20031;-74
2022/12/29 01:56:59;;;;;;;1.98;1.13;;;8.90;99.90;;;;;;4993167;28;20072;-74
2022/12/29 01:59:32;;;;;;;1.65;0.90;;;8.80;99.90;;;;;;5003282;28;20057;-74
2022/12/29 02:01:59;;;;;;;1.88;1.02;;;8.90;99.90;;;;;;5003676;28;20030;-73
2022/12/29 02:04:26;;;;;;;1.85;0.80;;;8.80;99.90;;;;;;4997957;28;20483;-74
2022/12/29 02:07:05;;;;;;;3.53;1.30;;;8.80;99.90;;;;;;4992823;28;20064;-74
2022/12/29 02:09:30;;;;;;;2.15;0.85;;;8.80;99.90;;;;;;4992391;28;20492;-74
2022/12/29 02:11:58;;;;;;;3.20;1.02;;;8.80;99.90;;;;;;4994605;28;20038;-74
2022/12/29 02:14:23;;;;;;;3.08;1.10;;;8.80;99.90;;;;;;4997995;28;20109;-73
2022/12/29 02:17:14;;;;;;;3.28;1.10;;;8.80;99.90;;;;;;4994461;28;20069;-74
2022/12/29 02:19:49;;;;;;;4.00;1.10;;;8.80;99.90;;;;;;4990603;28;20489;-74
2022/12/29 02:22:41;;;;;;;2.35;0.80;;;8.80;99.90;;;;;;5008319;28;20034;-73
2022/12/29 02:25:31;;;;;;;4.22;1.08;;;8.80;99.90;;;;;;4998712;28;20066;-73
2022/12/29 02:28:20;;;;;;;4.50;1.35;;;8.80;99.90;;;;;;4998397;28;20109;-74
2022/12/29 02:31:20;;;;;;;3.45;1.15;;;8.80;99.90;;;;;;4994891;28;20039;-74
2022/12/29 02:34:19;;;;;;;3.10;1.27;;;8.80;99.90;;;;;;4996700;28;20022;-74
2022/12/29 02:37:14;;;;;;;3.72;1.00;;;8.80;99.90;;;;;;4994844;28;20131;-73
2022/12/29 02:40:17;;;;;;;3.75;0.90;;;8.80;99.90;;;;;;4992863;28;20490;-74
2022/12/29 02:43:07;;;;;;;2.50;0.90;;;8.80;99.90;;;;;;4991536;28;20373;-74
2022/12/29 02:45:53;;;;;;;4.13;1.02;;;8.80;99.90;;;;;;4998513;28;20029;-74
2022/12/29 02:48:43;;;;;;;4.28;1.35;;;8.80;99.90;;;;;;4997329;28;20458;-74
2022/12/29 02:51:27;;;;;;;3.20;1.40;;;8.80;99.90;;;;;;4986852;28;20106;-74
2022/12/29 02:56:38;;;;;;;2.58;0.90;;;8.90;99.90;;;;;;4997855;28;20747;-74
2022/12/29 02:59:04;;;;;;;2.63;0.90;;;9.00;99.90;;;;;;4995786;28;20034;-74
2022/12/29 03:01:33;;;;;;;2.85;0.68;;;9.00;99.90;;;;;;4992103;28;20539;-74
2022/12/29 03:04:22;;;;;;;0.90;0.50;;;9.00;99.90;;;;;;4997283;28;20051;-74
2022/12/29 03:07:11;;;;;;;3.88;1.38;;;9.10;99.90;;;;;;4994862;28;20023;-74
2022/12/29 03:10:18;;;;;;;1.92;0.60;;;9.30;99.90;;;;;;4968899;28;20039;-74
2022/12/29 03:16:03;;;;;;;4.30;0.68;;;9.40;99.90;;;;;;4991703;28;20044;-74
2022/12/29 03:18:49;;;;;;;2.75;1.00;;;9.50;99.90;;;;;;4998395;28;20037;-74
2022/12/29 03:24:24;;;;;;;1.92;0.85;;;9.70;99.90;;;;;;4996026;28;20544;-74
2022/12/29 03:26:55;;;;;;;5.22;1.05;;;9.70;99.90;;;;;;4999920;28;20022;-74
2022/12/29 03:29:21;;;;;;;2.63;0.95;;;9.80;99.90;;;;;;4993188;28;20060;-74
2022/12/29 03:31:49;;;;;;;3.08;0.63;;;9.80;99.90;;;;;;4990683;28;20511;-73
2022/12/29 03:34:18;;;;;;;2.47;1.02;;;9.90;99.90;;;;;;4995956;28;20026;-73
2022/12/29 03:36:52;;;;;;;2.15;0.73;;;10.00;99.90;;;;;;4993178;28;20446;-73
2022/12/29 03:39:22;;;;;;;0.90;0.63;;;10.00;99.90;;;;;;4990901;28;20540;-74
2022/12/29 03:41:54;;;;;;;3.28;0.90;;;10.10;99.90;;;;;;4992690;28;20448;-73
2022/12/29 03:44:19;;;;;;;1.70;0.70;;;10.10;99.90;;;;;;4993467;28;20028;-73
2022/12/29 03:46:45;;;;;;;3.08;0.80;;;10.10;99.90;;;;;;4991941;28;20034;-74
2022/12/29 03:49:10;;;;;;;1.88;0.68;;;10.10;99.90;;;;;;4993056;28;20033;-74
2022/12/29 03:51:36;;;;;;;2.30;0.90;;;10.10;99.90;;;;;;4995641;28;20410;-74
2022/12/29 03:54:02;;;;;;;2.10;0.73;;;10.20;99.90;;;;;;4994098;28;20037;-73
2022/12/29 03:56:28;;;;;;;2.13;1.35;;;10.20;99.90;;;;;;4993051;28;20027;-74
2022/12/29 03:58:54;;;;;;;4.35;0.90;;;10.20;99.90;;;;;;4994289;28;20057;-73
2022/12/29 04:01:20;;;;;;;1.50;0.82;;;10.10;99.90;;;;;;4997936;28;20396;-74
2022/12/29 04:03:45;;;;;;;4.25;0.90;;;10.10;99.90;;;;;;4990608;28;20061;-73
2022/12/29 04:06:11;;;;;;;4.80;0.70;;;10.20;99.90;;;;;;4990332;28;20077;-73
2022/12/29 04:08:36;;;;;;;4.95;0.60;;;10.20;99.90;;;;;;4994186;28;20061;-73
2022/12/29 04:11:02;;;;;;;2.15;1.00;;;10.20;99.90;;;;;;4997734;28;20062;-74
2022/12/29 04:13:28;;;;;;;1.88;0.68;;;10.20;99.90;;;;;;4994953;28;20395;-74
2022/12/29 04:15:53;;;;;;;2.28;0.95;;;10.20;99.90;;;;;;4996587;28;20046;-74
2022/12/29 04:18:19;;;;;;;1.10;0.70;;;10.30;99.90;;;;;;4992978;28;20121;-73
2022/12/29 04:21:00;;;;;;;2.17;0.82;;;10.20;99.90;;;;;;4993715;28;20444;-74
2022/12/29 04:23:33;;;;;;;2.83;0.80;;;10.20;99.90;;;;;;4988377;28;20026;-74
2022/12/29 04:25:59;;;;;;;4.90;0.95;;;10.20;99.90;;;;;;4997045;28;20399;-74
2022/12/29 04:28:25;;;;;;;4.43;1.08;;;10.20;99.90;;;;;;4992447;28;20113;-74
2022/12/29 04:30:51;;;;;;;4.18;0.80;;;10.20;99.90;;;;;;4995644;28;20041;-74
2022/12/29 04:33:17;;;;;;;3.05;1.08;;;10.10;99.90;;;;;;4992135;28;20081;-74
2022/12/29 04:35:43;;;;;;;4.60;0.88;;;10.10;99.90;;;;;;4995049;28;20034;-74
2022/12/29 04:38:09;;;;;;;2.97;1.00;;;10.20;99.90;;;;;;4993958;28;20042;-74
2022/12/29 04:40:35;;;;;;;2.55;1.20;;;10.30;99.90;;;;;;4995967;28;20034;-74
2022/12/29 04:43:01;;;;;;;6.95;1.23;;;10.20;99.90;;;;;;4991344;28;20376;-74
2022/12/29 04:45:27;;;;;;;2.25;1.20;;;10.20;99.90;;;;;;4994335;28;20105;-74
2022/12/29 04:47:52;;;;;;;2.72;0.90;;;10.30;99.90;;;;;;4995058;28;20026;-74
2022/12/29 04:50:18;;;;;;;4.43;1.20;;;10.30;99.90;;;;;;4993010;28;20582;-74
2022/12/29 04:52:44;;;;;;;1.92;1.08;;;10.20;99.90;;;;;;4995457;28;20400;-74
2022/12/29 04:55:09;;;;;;;2.10;1.10;;;10.30;99.90;;;;;;4992895;28;20117;-74
2022/12/29 04:57:35;;;;;;;1.88;0.77;;;10.20;99.90;;;;;;4995928;28;20518;-74
2022/12/29 05:00:01;;;;;;;2.65;0.95;;;10.30;99.90;;;;;;4996607;28;20568;-73
2022/12/29 05:02:27;;;;;;;3.13;1.83;;;10.30;99.90;;;;;;4996872;28;20103;-74
2022/12/29 05:04:52;;;;;;;3.10;0.90;;;10.30;99.90;;;;;;4990209;28;20383;-74
2022/12/29 05:07:18;;;;;;;3.83;1.20;;;10.30;99.90;;;;;;4991715;28;20434;-74
2022/12/29 05:09:44;;;;;;;2.05;1.00;;;10.40;99.90;;;;;;4989645;28;20045;-74
2022/12/29 05:12:09;;;;;;;4.00;1.17;;;10.40;99.90;;;;;;4990805;28;20403;-74
2022/12/29 05:14:35;;;;;;;4.20;1.02;;;10.40;99.90;;;;;;4992391;28;20122;-72
2022/12/29 05:17:01;;;;;;;2.40;0.95;;;10.40;99.90;;;;;;4992858;28;20058;-73
2022/12/29 05:19:26;;;;;;;2.97;1.08;;;10.50;99.90;;;;;;4993508;28;20414;-73
2022/12/29 05:21:52;;;;;;;2.65;0.95;;;10.50;99.90;;;;;;4994436;28;20027;-73
2022/12/29 05:24:18;;;;;;;3.83;1.17;;;10.50;99.90;;;;;;4995143;28;20435;-72
2022/12/29 05:26:43;;;;;;;4.78;1.05;;;10.50;99.90;;;;;;4992509;28;20031;-72
2022/12/29 05:29:09;;;;;;;2.15;0.90;;;10.50;99.90;;;;;;4994343;28;20426;-72
2022/12/29 05:31:35;;;;;;;3.78;1.20;;;10.50;99.90;;;;;;4992626;28;20030;-72
2022/12/29 05:34:01;;;;;;;2.95;0.90;;;10.50;99.90;;;;;;4989483;28;20503;-75
2022/12/29 05:36:27;;;;;;;2.63;1.15;;;10.50;99.90;;;;;;4990343;28;20030;-75
2022/12/29 05:38:53;;;;;;;2.67;1.08;;;10.50;99.90;;;;;;4990776;28;20026;-75
2022/12/29 05:41:18;;;;;;;3.55;1.20;;;10.50;99.90;;;;;;4992228;28;20051;-73
2022/12/29 05:43:44;;;;;;;1.25;0.93;;;10.50;99.90;;;;;;4990606;28;20037;-73
2022/12/29 05:46:09;;;;;;;2.78;0.98;;;10.40;99.90;;;;;;4991137;28;20060;-74
2022/12/29 05:48:35;;;;;;;4.22;1.38;;;10.40;99.90;;;;;;4989557;28;20026;-73
2022/12/29 05:51:01;;;;;;;2.20;0.93;;;10.40;99.90;;;;;;4998690;28;20034;-74
2022/12/29 05:53:26;;;;;;;2.53;0.98;;;10.50;99.90;;;;;;4996853;28;20026;-74
2022/12/29 05:55:52;;;;;;;3.65;1.10;;;10.40;99.90;;;;;;4997151;28;20084;-75
2022/12/29 05:58:18;;;;;;;1.88;0.80;;;10.40;99.90;;;;;;4994260;28;20467;-74
2022/12/29 06:00:44;;;;;;;3.97;1.42;;;10.40;99.90;;;;;;4993557;28;20022;-74
2022/12/29 06:03:10;;;;;;;2.13;1.10;;;10.50;99.90;;;;;;4995003;28;20035;-75
2022/12/29 06:05:35;;;;;;;4.93;0.70;;;10.40;99.90;;;;;;4991529;28;20357;-75
2022/12/29 06:08:01;;;;;;;3.75;0.90;;;10.60;99.90;;;;;;4991808;28;20025;-74
2022/12/29 06:10:27;;;;;;;2.22;0.77;;;10.60;99.90;;;;;;4993289;28;20109;-75
2022/12/29 06:12:52;;;;;;;3.28;1.17;;;10.70;99.90;;;;;;4994706;28;20084;-75
2022/12/29 06:15:18;;;;;;;4.65;0.98;;;10.70;99.90;;;;;;4998268;28;20022;-74
2022/12/29 06:17:44;;;;;;;3.75;1.00;;;10.70;99.90;;;;;;4992975;28;20033;-74
2022/12/29 06:20:10;;;;;;;3.25;1.02;;;10.80;99.90;;;;;;4988297;28;20121;-74
2022/12/29 06:22:36;;;;;;;3.33;1.10;;;10.80;99.90;;;;;;4990362;28;20109;-75
2022/12/29 06:25:02;;;;;;;2.17;0.80;;;10.90;99.90;;;;;;4992939;28;20452;-74
2022/12/29 06:27:28;;;;;;;3.75;0.68;;;10.90;99.90;;;;;;4996663;28;20034;-74
2022/12/29 06:29:54;;;;;;;2.28;0.80;;;10.90;99.90;;;;;;4994891;28;20113;-75
2022/12/29 06:32:20;;;;;;;2.33;0.73;;;11.00;99.90;;;;;;4989403;28;20134;-75
2022/12/29 06:34:46;;;;;;;3.15;0.77;;;11.00;99.90;;;;;;4989620;28;20030;-75
2022/12/29 06:37:11;;;;;;;4.55;0.98;;;11.00;99.90;;;;;;4993700;28;20073;-75
2022/12/29 06:39:37;;;;;;;4.30;0.90;;;10.90;99.90;;;;;;4994201;28;20026;-74
2022/12/29 06:42:03;;;;;;;8.18;4.22;;;10.90;99.90;;;;;;4994789;28;20027;-72
2022/12/29 06:44:29;;;;;;;4.35;2.28;;;11.20;99.90;;;;;;4997615;28;20034;-73
2022/12/29 06:46:55;;;;;;;4.28;1.48;;;11.50;99.90;;;;;;4992794;28;20090;-73
2022/12/29 06:49:20;;;;;;;2.75;1.25;;;11.70;99.90;;;;;;4989482;28;20037;-72
2022/12/29 06:51:46;;;;;;;2.42;0.73;;;11.70;99.90;;;;;;4994372;28;20027;-75
2022/12/29 06:54:12;;;;;;;1.35;0.60;;;11.60;99.90;;;;;;4986199;28;20058;-76
2022/12/29 06:56:38;;;;;;;0.98;0.70;;;11.60;99.90;;;;;;4991042;28;20406;-76
2022/12/29 06:59:03;;;;;;;3.00;0.70;;;11.50;99.90;;;;;;4991357;28;20495;-75
2022/12/29 07:01:29;;;;;;;1.88;0.80;;;11.40;99.90;;;;;;4994105;28;20022;-77
2022/12/29 07:03:55;;;;;;;1.85;0.80;;;11.40;99.90;;;;;;4991624;28;20046;-77
2022/12/29 07:06:21;;;;;;;2.15;0.75;;;11.30;99.90;;;;;;4992504;28;20065;-77
2022/12/29 07:08:47;;;;;;;2.10;0.90;;;11.30;99.90;;;;;;4990522;28;20573;-78
2022/12/29 07:11:12;;;;;;;1.90;1.02;;;11.20;99.90;;;;;;4984694;28;20031;-76
2022/12/29 07:13:38;;;;;;;1.50;1.00;;;11.20;99.90;;;;;;4998034;28;20029;-77
2022/12/29 07:16:10;;;;;;;1.08;0.60;;;11.20;99.90;;;;;;4982966;28;20026;-75
2022/12/29 07:18:36;;;;;;;1.83;0.60;;;11.30;99.90;;;;;;4976007;28;20030;-76
2022/12/29 07:21:02;;;;;;;1.63;0.75;;;11.30;99.90;;;;;;4990132;28;20425;-76
2022/12/29 07:23:28;;;;;;;4.85;0.85;;;11.30;99.90;;;;;;4996955;28;20041;-77
2022/12/29 07:26:08;;;;;;;1.75;0.77;;;11.30;99.90;;;;;;4993326;28;20022;-74
2022/12/29 07:28:35;;;;;;;1.83;0.75;;;11.20;99.90;;;;;;4980667;28;20092;-74
2022/12/29 07:31:01;;;;;;;2.90;0.82;;;11.20;99.90;;;;;;4995411;23;20034;-77
2022/12/29 07:33:31;;;;;;;2.00;0.80;;;11.20;99.90;;;;;;4970977;28;20062;-78
2022/12/29 07:35:58;;;;;;;2.05;0.98;;;11.10;99.90;;;;;;4954089;28;20038;-79
2022/12/29 07:38:23;;;;;;;2.00;0.80;;;11.10;99.90;;;;;;4973926;28;20042;-79
2022/12/29 07:40:49;;;;;;;2.70;0.70;;;11.10;99.90;;;;;;4971720;28;20035;-81
2022/12/29 07:43:15;;;;;;;1.05;0.70;;;11.10;99.90;;;;;;4976686;28;21236;-79
2022/12/29 07:45:40;;;;;;;2.92;0.85;;;11.10;99.90;;;;;;4979476;28;20025;-79
2022/12/29 07:48:09;;;;;;;1.92;0.88;;;11.10;99.90;;;;;;4975456;28;20077;-80
2022/12/29 07:50:35;;;;;;;3.53;0.70;;;11.10;99.90;;;;;;4960883;28;20069;-81
2022/12/29 07:53:01;;;;;;;2.22;0.82;;;11.10;99.90;;;;;;4976468;28;20515;-81
2022/12/29 07:55:27;;;;;;;4.57;1.10;;;11.20;99.90;;;;;;4963272;28;20114;-80
2022/12/29 07:57:54;;;;;;;1.52;0.70;;;11.10;99.90;;;;;;4977680;28;20057;-79
2022/12/29 08:00:20;;;;;;;4.55;0.68;;;11.10;99.90;;;;;;4975188;28;20056;-81
2022/12/29 08:02:46;;;;;;;2.08;0.70;;;11.20;99.90;;;;;;4964581;28;20041;-78
2022/12/29 08:05:11;;;;;;;3.38;0.93;;;11.20;99.90;;;;;;4981413;28;20035;-80
2022/12/29 08:07:37;;;;;;;3.53;1.00;;;11.20;99.90;;;;;;4964217;28;20384;-80
2022/12/29 08:10:04;;;;;;;6.28;1.35;;;11.30;99.90;;;;;;4971786;28;20041;-82
2022/12/29 08:12:29;;;;;;;1.98;1.10;;;11.40;99.90;;;;;;4975398;28;20023;-79
2022/12/29 08:14:55;;;;;;;2.17;0.70;;;11.40;99.90;;;;;;4977205;28;20018;-80
2022/12/29 08:17:21;;;;;;;2.92;0.75;;;11.50;99.90;;;;;;4980194;28;20495;-82
2022/12/29 08:19:46;;;;;;;2.42;0.63;;;11.60;99.90;;;;;;4977846;28;20252;-82
2022/12/29 08:22:13;;;;;;;3.20;0.77;;;11.60;99.90;;;;;;4980362;28;20510;-83
2022/12/29 08:24:39;;;;;;;1.85;1.05;;;11.70;99.90;;;;;;4980015;28;20027;-82
2022/12/29 08:27:05;;;;;;;2.00;0.80;;;11.80;99.90;;;;;;4979550;28;20031;-81
2022/12/29 08:29:31;;;;;;;4.60;3.22;;;11.90;99.90;;;;;;4977650;28;20042;-81
2022/12/29 08:31:56;;;;;;;5.70;1.08;;;11.90;99.90;;;;;;4977401;28;20062;-81
2022/12/29 08:34:22;;;;;;;3.25;0.90;;;11.90;99.90;;;;;;4957181;28;20030;-81
2022/12/29 08:36:48;;;;;;;1.42;0.75;;;11.90;99.90;;;;;;4973696;28;20031;-80
2022/12/29 08:39:14;;;;;;;6.35;1.10;;;11.90;99.90;;;;;;4975043;28;20531;-81
2022/12/29 08:41:39;;;;;;;2.28;0.90;;;11.90;99.90;;;;;;4981410;28;20031;-81
2022/12/29 08:44:05;;;;;;;3.40;0.85;;;11.80;99.90;;;;;;4981307;28;20029;-82
2022/12/29 08:46:31;;;;;;;2.30;0.90;;;11.80;99.90;;;;;;4976959;28;20030;-82
2022/12/29 08:48:57;;;;;;;5.22;1.42;;;11.80;99.90;;;;;;4972049;28;20413;-80
2022/12/29 08:51:23;;;;;;;1.88;1.00;;;11.70;99.90;;;;;;4979592;28;20073;-81
2022/12/29 08:53:49;;;;;;;2.28;0.93;;;11.70;99.90;;;;;;4975200;28;20027;-82
2022/12/29 08:56:14;;;;;;;1.98;1.00;;;11.70;99.90;;;;;;4975740;28;20035;-81
2022/12/29 08:58:40;;;;;;;3.88;1.05;;;11.70;99.90;;;;;;4975381;28;20023;-80
2022/12/29 09:01:09;;;;;;;3.50;1.05;;;11.70;99.90;;;;;;4981917;28;20023;-79
2022/12/29 09:03:34;;;;;;;4.10;0.93;;;11.70;99.90;;;;;;4972348;28;20086;-81
2022/12/29 09:06:00;;;;;;;2.70;1.00;;;11.60;99.90;;;;;;4973283;28;20027;-83
2022/12/29 09:08:26;;;;;;;4.15;0.77;;;11.70;99.90;;;;;;4967329;28;20037;-83
2022/12/29 09:10:51;;;;;;;2.33;1.25;;;11.70;99.90;;;;;;4951246;28;20167;-81
2022/12/29 09:13:18;;;;;;;1.30;0.75;;;11.70;99.90;;;;;;4953803;28;20126;-84
2022/12/29 09:15:44;;;;;;;8.43;1.15;;;11.80;99.90;;;;;;4975310;28;20023;-81
2022/12/29 09:18:11;;;;;;;3.42;1.10;;;11.80;99.90;;;;;;4972917;28;20035;-82
2022/12/29 09:20:37;;;;;;;3.95;1.10;;;11.80;99.90;;;;;;4975721;28;20030;-80
2022/12/29 09:23:03;;;;;;;4.97;1.30;;;11.90;99.90;;;;;;4959797;28;20088;-82
2022/12/29 09:25:29;;;;;;;0.95;0.75;;;11.90;99.90;;;;;;4978355;28;20046;-81
2022/12/29 09:27:55;;;;;;;2.13;0.95;;;12.00;99.90;;;;;;4977242;28;20562;-81
2022/12/29 09:30:22;;;;;;;3.38;0.90;;;12.00;99.90;;;;;;4960228;28;20050;-82
2022/12/29 09:32:49;;;;;;;2.53;0.82;;;12.00;99.90;;;;;;4976635;28;20039;-81
2022/12/29 09:35:16;;;;;;;3.60;1.00;;;12.00;99.90;;;;;;4976993;28;20059;-81
2022/12/29 09:37:42;;;;;;;3.95;1.25;;;12.00;99.90;;;;;;4969159;28;20283;-79
2022/12/29 09:40:43;;;;;;;1.35;0.80;;;12.00;99.90;;;;;;4955761;28;20640;-80
2022/12/29 09:43:17;;;;;;;2.35;1.20;;;12.00;99.90;;;;;;4970867;28;20053;-80
2022/12/29 09:45:54;;;;;;;5.25;1.20;;;12.00;99.90;;;;;;4957825;28;20089;-81
2022/12/29 09:48:29;;;;;;;2.38;1.02;;;12.00;99.90;;;;;;4951872;28;20054;-83
2022/12/29 09:51:01;;;;;;;2.00;0.85;;;12.00;99.90;;;;;;4973121;28;20030;-82
2022/12/29 09:53:39;;;;;;;2.10;1.08;;;12.00;99.90;;;;;;4961816;28;20109;-82
2022/12/29 09:56:10;;;;;;;2.85;1.00;;;12.00;99.90;;;;;;4959755;28;20035;-80
2022/12/29 09:58:44;;;;;;;2.33;1.38;;;12.00;99.90;;;;;;4960768;28;20019;-80
2022/12/29 10:01:25;;;;;;;1.55;0.80;;;12.00;99.90;;;;;;4973842;28;20806;-81
2022/12/29 10:03:55;;;;;;;2.88;1.10;;;12.00;99.90;;;;;;4972100;28;20019;-81
2022/12/29 10:06:52;;;;;;;3.97;1.08;;;12.10;99.90;;;;;;4952730;28;20073;-83
2022/12/29 10:09:18;;;;;;;2.70;1.00;;;12.10;99.90;;;;;;4956526;28;20049;-80
2022/12/29 10:12:06;;;;;;;2.75;0.95;;;12.20;99.90;;;;;;4972967;28;20082;-81
2022/12/29 10:14:47;;;;;;;4.13;1.10;;;12.20;99.90;;;;;;4971163;28;20026;-81
2022/12/29 10:17:22;;;;;;;2.58;0.90;;;12.20;99.90;;;;;;4950489;28;20065;-79
2022/12/29 10:20:24;;;;;;;4.53;1.10;;;12.20;99.90;;;;;;4961362;28;20030;-79
2022/12/29 10:23:24;;;;;;;1.42;0.70;;;12.20;99.90;;;;;;4961367;28;20436;-79
2022/12/29 10:25:53;;;;;;;2.67;1.17;;;12.20;99.90;;;;;;4958186;28;20058;-78
2022/12/29 10:28:32;;;;;;;3.10;0.82;;;12.20;99.90;;;;;;4974285;28;20030;-79
2022/12/29 10:31:01;;;;;;;2.92;1.50;;;12.20;99.90;;;;;;4980247;28;20395;-78
2022/12/29 10:33:35;;;;;;;2.97;1.02;;;12.30;99.90;;;;;;4962282;28;20032;-80
2022/12/29 10:36:16;;;;;;;1.45;0.63;;;12.30;99.90;;;;;;4974765;28;20155;-79
2022/12/29 10:38:53;;;;;;;2.95;0.95;;;12.30;99.90;;;;;;4981265;28;20027;-80
2022/12/29 10:41:31;;;;;;;2.00;0.90;;;12.30;99.90;;;;;;4956442;28;20070;-80
2022/12/29 10:43:58;;;;;;;2.03;0.80;;;12.30;99.90;;;;;;4981713;28;20045;-79
2022/12/29 10:46:28;;;;;;;1.75;0.82;;;12.20;99.90;;;;;;4979903;28;20062;-80
2022/12/29 10:48:53;;;;;;;4.57;1.13;;;12.20;99.90;;;;;;4977255;28;20025;-79
2022/12/29 10:51:29;;;;;;;4.43;0.77;;;12.20;99.90;;;;;;4962164;28;20106;-80
2022/12/29 10:54:00;;;;;;;3.70;0.98;;;12.20;99.90;;;;;;4981260;28;20042;-79
2022/12/29 10:56:37;;;;;;;3.40;1.10;;;12.20;99.90;;;;;;4979635;28;20038;-80
2022/12/29 10:59:31;;;;;;;2.30;0.80;;;12.20;99.90;;;;;;4975576;28;20035;-79
2022/12/29 11:02:09;;;;;;;2.80;0.80;;;12.20;99.90;;;;;;4951541;28;20050;-80
2022/12/29 11:04:59;;;;;;;2.45;1.00;;;12.10;99.90;;;;;;4958333;28;20131;-80
2022/12/29 11:07:25;;;;;;;1.63;0.88;;;12.20;99.90;;;;;;4974793;28;20023;-79
2022/12/29 11:09:52;;;;;;;4.05;0.98;;;12.20;99.90;;;;;;4965489;28;20527;-79
2022/12/29 11:12:26;;;;;;;3.22;0.60;;;12.20;99.90;;;;;;4978771;28;20039;-80
2022/12/29 11:15:09;;;;;;;;;;;12.20;99.90;;;;;;4977401;28;20031;-80
2022/12/29 11:17:44;;;;;;;2.70;1.25;;;12.20;99.90;;;;;;4959732;28;19980;-79
2022/12/29 11:20:30;;;;;;;3.22;0.95;;;12.20;99.90;;;;;;4979352;28;20085;-79
2022/12/29 11:22:58;;;;;;;2.92;0.73;;;12.20;99.90;;;;;;4963320;28;20537;-80
2022/12/29 11:25:24;;;;;;;2.10;0.98;;;12.20;99.90;;;;;;4963455;28;20042;-80
2022/12/29 11:28:03;;;;;;;3.80;1.20;;;12.10;99.90;;;;;;4976627;28;20031;-80
2022/12/29 11:30:31;;;;;;;2.88;0.73;;;12.10;99.90;;;;;;4980265;28;20062;-79
2022/12/29 11:32:58;;;;;;;1.42;0.80;;;12.10;99.90;;;;;;4961286;28;20043;-80
2022/12/29 11:35:50;;;;;;;2.80;0.60;;;12.10;99.90;;;;;;4958186;28;20117;-80
2022/12/29 11:38:25;;;;;;;2.00;1.15;;;12.10;99.90;;;;;;4954930;28;20215;-79
2022/12/29 11:40:51;;;;;;;5.40;0.93;;;12.10;99.90;;;;;;4975710;28;20023;-80
2022/12/29 11:43:22;;;;;;;1.13;0.70;;;12.10;99.90;;;;;;4976435;28;20022;-80
2022/12/29 11:45:48;;;;;;;3.75;1.13;;;12.10;99.90;;;;;;4977360;28;20023;-81
2022/12/29 11:48:19;;;;;;;1.58;0.70;;;12.10;99.90;;;;;;4975628;28;20023;-80
2022/12/29 11:50:59;;;;;;;2.50;0.80;;;12.10;99.90;;;;;;4977136;28;20031;-81
2022/12/29 11:53:30;;;;;;;4.00;1.05;;;12.20;99.90;;;;;;4977434;28;20514;-80
2022/12/29 11:56:02;;;;;;;2.40;1.27;;;12.10;99.90;;;;;;4955592;28;20034;-80
2022/12/29 11:58:33;;;;;;;4.25;0.82;;;12.10;99.90;;;;;;4977496;28;20034;-81
2022/12/29 12:01:31;;;;;;;2.35;0.80;;;12.10;99.90;;;;;;4977379;28;20037;-81
2022/12/29 12:04:01;;;;;;;2.15;1.02;;;12.10;99.90;;;;;;4966090;28;20202;-81
2022/12/29 12:06:28;;;;;;;2.05;1.00;;;12.00;99.90;;;;;;4964105;28;20030;-81
2022/12/29 12:08:59;;;;;;;2.10;0.73;;;12.00;99.90;;;;;;4963068;28;20114;-81
2022/12/29 12:11:36;;;;;;;4.32;1.30;;;12.00;99.90;;;;;;4981831;28;20504;-81
2022/12/29 12:14:23;;;;;;;2.85;1.17;;;12.00;99.90;;;;;;4975293;28;20035;-81
2022/12/29 12:17:02;;;;;;;2.88;1.30;;;12.00;99.90;;;;;;4955500;28;20147;-79
2022/12/29 12:19:59;;;;;;;5.35;1.17;;;12.00;99.90;;;;;;4973003;28;20038;-80
2022/12/29 12:23:02;;;;;;;3.88;1.38;;;12.00;99.90;;;;;;4977832;28;20121;-80
2022/12/29 12:25:47;;;;;;;1.42;1.00;;;11.90;99.90;;;;;;4969961;28;20130;-80
2022/12/29 12:28:24;;;;;;;2.47;1.00;;;11.80;99.90;;;;;;4966744;28;20046;-80
2022/12/29 12:30:56;;;;;;;3.22;1.35;;;11.80;99.90;;;;;;4974410;28;20027;-80
2022/12/29 12:33:35;;;;;;;2.40;1.10;;;11.80;99.90;;;;;;4974217;28;20035;-81
2022/12/29 12:36:29;;;;;;;2.08;0.90;;;11.80;99.90;;;;;;4968188;28;20128;-80
2022/12/29 12:39:25;;;;;;;2.00;0.75;;;11.70;99.90;;;;;;4960650;28;20397;-78
2022/12/29 12:42:23;;;;;;;3.30;1.23;;;11.70;99.90;;;;;;4956879;28;20039;-79
2022/12/29 12:45:07;;;;;;;5.82;1.50;;;11.70;99.90;;;;;;4915421;28;20061;-80
2022/12/29 12:48:04;;;;;;;2.08;0.93;;;11.70;99.90;;;;;;4975996;28;20405;-81
2022/12/29 12:50:38;;;;;;;3.70;1.30;;;11.70;99.90;;;;;;4956303;28;20031;-80
2022/12/29 12:53:27;;;;;;;5.35;1.70;;;11.70;99.90;;;;;;4957397;28;20086;-80
2022/12/29 12:56:13;;;;;;;3.95;1.38;;;11.70;99.90;;;;;;4946112;28;20047;-79
2022/12/29 12:59:01;;;;;;;6.22;1.52;;;11.70;99.90;;;;;;4959374;28;20085;-80
2022/12/29 13:01:54;;;;;;;2.35;1.10;;;11.70;99.90;;;;;;4959975;28;20472;-79
2022/12/29 13:04:34;;;;;;;2.42;1.10;;;11.70;99.90;;;;;;4977422;28;20035;-79
2022/12/29 13:07:27;;;;;;;2.83;1.27;;;11.70;99.90;;;;;;4963043;28;20379;-80
2022/12/29 13:10:02;;;;;;;2.40;1.10;;;11.60;99.90;;;;;;4975427;28;20134;-78
2022/12/29 13:13:10;;;;;;;2.83;1.20;;;11.60;99.90;;;;;;4983096;28;20058;-79
2022/12/29 13:15:54;;;;;;;4.28;1.20;;;11.60;99.90;;;;;;4975880;28;20029;-79
2022/12/29 13:18:32;;;;;;;4.93;1.45;;;11.60;99.90;;;;;;4957634;28;20526;-80
2022/12/29 13:21:14;;;;;;;4.80;1.73;;;11.50;99.90;;;;;;4979296;28;20104;-80
2022/12/29 13:24:03;;;;;;;8.45;2.20;;;11.50;99.90;;;;;;4979113;28;20140;-79
2022/12/29 13:26:32;;;;;;;6.25;1.88;;;11.50;99.90;;;;;;4973306;28;20365;-79
2022/12/29 13:29:19;;;;;;;8.60;2.75;;;11.50;99.90;;;;;;4962507;28;20456;-80
2022/12/29 13:31:51;;;;;;;4.03;1.90;;;11.50;99.90;;;;;;4981031;23;20035;-76
2022/12/29 13:34:32;;;;;;;4.18;1.90;;;11.50;99.90;;;;;;4988741;28;20386;-75
2022/12/29 13:37:07;;;;;;;3.83;1.45;;;11.40;99.90;;;;;;4988842;28;20026;-75
2022/12/29 13:39:42;;;;;;;2.90;1.60;;;11.40;99.90;;;;;;4974750;28;20121;-75
2022/12/29 13:42:09;;;;;;;2.45;1.15;;;11.40;99.90;;;;;;4991493;28;20026;-76
2022/12/29 13:44:40;;;;;;;3.05;1.00;;;11.50;99.90;;;;;;4990094;28;20520;-75
2022/12/29 13:47:19;;;;;;;4.53;1.70;;;11.50;99.90;;;;;;4984607;28;20484;-76
2022/12/29 13:49:45;;;;;;;3.55;1.25;;;11.50;99.90;;;;;;4989146;28;20031;-76
2022/12/29 13:52:36;;;;;;;3.50;1.10;;;11.50;99.90;;;;;;4992840;28;20141;-76